createdAt,value
2018-07-19T00:01:57.993Z,99.90
2018-07-19T00:06:55.810Z,99.90
2018-07-19T00:09:24.913Z,99.90
2018-07-19T00:11:53.898Z,99.90
2018-07-19T00:14:23.582Z,99.90
2018-07-19T00:16:52.644Z,99.90
2018-07-19T00:19:21.641Z,99.90
2018-07-19T00:21:50.643Z,99.90
2018-07-19T00:24:19.620Z,99.90
2018-07-19T00:26:48.564Z,99.90
2018-07-19T00:29:17.609Z,99.90
2018-07-19T00:34:15.865Z,99.90
2018-07-19T00:36:45.019Z,99.90
2018-07-19T00:39:14.054Z,99.90
2018-07-19T00:41:46.176Z,99.90
2018-07-19T00:44:16.934Z,99.90
2018-07-19T00:46:46.885Z,99.90
2018-07-19T00:49:15.933Z,99.90
2018-07-19T00:51:45.017Z,99.90
2018-07-19T00:54:14.095Z,99.90
2018-07-19T00:56:43.120Z,99.90
2018-07-19T00:59:12.150Z,99.90
2018-07-19T01:04:09.752Z,99.90
2018-07-19T01:06:38.876Z,99.90
2018-07-19T01:09:10.461Z,99.90
2018-07-19T01:11:39.798Z,99.90
2018-07-19T01:14:09.379Z,99.90
2018-07-19T01:16:38.409Z,99.90
2018-07-19T01:19:07.526Z,99.90
2018-07-19T01:21:36.534Z,99.90
2018-07-19T01:24:05.553Z,99.90
2018-07-19T01:26:34.578Z,99.90
2018-07-19T01:29:04.409Z,99.90
2018-07-19T01:31:34.177Z,99.90
2018-07-19T01:34:03.193Z,99.90
2018-07-19T01:36:33.963Z,99.90
2018-07-19T01:39:03.177Z,99.90
2018-07-19T01:41:53.877Z,99.90
2018-07-19T01:44:23.244Z,99.90
2018-07-19T01:46:52.211Z,99.90
2018-07-19T01:49:22.245Z,99.90
2018-07-19T01:51:51.239Z,99.90
2018-07-19T01:54:20.233Z,99.90
2018-07-19T01:56:49.216Z,99.90
2018-07-19T01:59:18.233Z,99.90
2018-07-19T02:01:47.181Z,99.90
2018-07-19T02:04:16.597Z,99.90
2018-07-19T02:06:45.603Z,99.90
2018-07-19T02:09:14.812Z,99.90
2018-07-19T02:11:44.337Z,99.90
2018-07-19T02:14:13.312Z,99.90
2018-07-19T02:16:42.396Z,99.90
2018-07-19T02:19:12.157Z,99.90
2018-07-19T02:24:10.352Z,99.90
2018-07-19T02:26:39.352Z,99.90
2018-07-19T02:29:08.367Z,99.90
2018-07-19T02:31:37.804Z,99.90
2018-07-19T02:34:06.921Z,99.90
2018-07-19T02:36:35.863Z,99.90
2018-07-19T02:39:08.800Z,99.90
2018-07-19T02:41:38.096Z,99.90
2018-07-19T02:49:06.409Z,99.90
2018-07-19T02:51:35.454Z,99.90
2018-07-19T02:54:04.913Z,99.90
2018-07-19T02:56:33.913Z,99.90
2018-07-19T02:59:03.572Z,99.90
2018-07-19T03:01:32.605Z,99.90
2018-07-19T03:04:01.947Z,99.90
2018-07-19T03:06:31.134Z,99.90
2018-07-19T03:09:00.392Z,99.90
2018-07-19T03:11:29.377Z,99.90
2018-07-19T03:13:58.544Z,99.90
2018-07-19T03:16:27.764Z,99.90
2018-07-19T03:18:56.756Z,99.90
2018-07-19T03:21:25.837Z,99.90
2018-07-19T03:23:54.875Z,99.90
2018-07-19T03:26:23.949Z,99.90
2018-07-19T03:28:52.933Z,99.90
2018-07-19T03:31:21.942Z,99.90
2018-07-19T03:33:50.893Z,99.90
2018-07-19T03:36:19.893Z,99.90
2018-07-19T03:41:17.406Z,99.90
2018-07-19T03:43:46.800Z,99.90
2018-07-19T03:46:16.028Z,99.90
2018-07-19T03:48:45.032Z,99.90
2018-07-19T03:51:14.012Z,99.90
2018-07-19T03:53:43.737Z,99.90
2018-07-19T03:56:12.732Z,99.90
2018-07-19T03:58:41.745Z,99.90
2018-07-19T04:01:10.734Z,99.90
2018-07-19T04:03:39.714Z,99.90
2018-07-19T04:06:09.197Z,99.90
2018-07-19T04:08:44.184Z,99.90
2018-07-19T04:11:19.916Z,99.90
2018-07-19T04:13:51.656Z,99.90
2018-07-19T04:16:20.860Z,99.90
2018-07-19T04:18:49.869Z,99.90
2018-07-19T04:21:18.933Z,99.90
2018-07-19T04:26:16.659Z,99.90
2018-07-19T04:28:46.121Z,99.90
2018-07-19T04:31:15.147Z,99.90
2018-07-19T04:33:44.114Z,99.90
2018-07-19T04:36:13.100Z,99.90
2018-07-19T04:38:42.448Z,99.90
2018-07-19T04:41:11.433Z,99.90
2018-07-19T04:43:40.813Z,99.90
2018-07-19T04:46:09.791Z,99.90
2018-07-19T04:48:38.881Z,99.90
2018-07-19T04:51:11.342Z,99.90
2018-07-19T04:53:40.813Z,99.90
2018-07-19T04:56:10.162Z,99.90
2018-07-19T04:58:40.310Z,99.90
2018-07-19T05:01:09.306Z,99.90
2018-07-19T05:03:38.276Z,99.90
2018-07-19T05:06:07.274Z,99.90
2018-07-19T05:08:36.284Z,99.90
2018-07-19T05:11:05.609Z,99.90
2018-07-19T05:13:34.757Z,99.90
2018-07-19T05:16:03.752Z,99.90
2018-07-19T05:18:33.301Z,99.90
2018-07-19T05:21:02.275Z,99.90
2018-07-19T05:23:32.076Z,99.90
2018-07-19T05:26:01.069Z,99.90
2018-07-19T05:28:30.121Z,99.90
2018-07-19T05:30:59.768Z,99.90
2018-07-19T05:33:28.745Z,99.90
2018-07-19T05:35:57.757Z,99.90
2018-07-19T05:38:26.732Z,99.90
2018-07-19T05:40:55.789Z,99.90
2018-07-19T05:43:25.097Z,99.90
2018-07-19T05:45:54.526Z,99.90
2018-07-19T05:48:23.889Z,99.90
2018-07-19T05:50:52.868Z,99.90
2018-07-19T05:58:20.117Z,99.90
2018-07-19T06:00:49.130Z,99.90
2018-07-19T06:03:18.173Z,99.90
2018-07-19T06:05:47.204Z,99.90
2018-07-19T06:08:16.354Z,99.90
2018-07-19T06:10:46.354Z,99.90
2018-07-19T06:13:15.337Z,99.90
2018-07-19T06:15:45.351Z,99.90
2018-07-19T06:18:14.478Z,99.90
2018-07-19T06:20:43.522Z,99.90
2018-07-19T06:25:41.287Z,99.90
2018-07-19T06:28:10.267Z,99.90
2018-07-19T06:30:39.219Z,99.90
2018-07-19T06:33:08.238Z,99.90
2018-07-19T06:35:37.461Z,99.90
2018-07-19T06:38:06.449Z,99.90
2018-07-19T06:40:35.478Z,99.90
2018-07-19T06:43:04.725Z,99.90
2018-07-19T06:45:33.711Z,99.90
2018-07-19T06:50:32.295Z,99.90
2018-07-19T06:53:01.245Z,99.90
2018-07-19T06:55:30.287Z,99.90
2018-07-19T06:58:00.538Z,99.90
2018-07-19T07:05:27.232Z,99.90
2018-07-19T07:07:56.248Z,99.90
2018-07-19T07:10:25.210Z,99.90
2018-07-19T07:12:54.197Z,99.90
2018-07-19T07:15:23.166Z,99.90
2018-07-19T07:17:52.146Z,99.90
2018-07-19T07:22:51.252Z,99.90
2018-07-19T07:25:20.975Z,99.90
2018-07-19T07:27:50.033Z,99.90
2018-07-19T07:30:19.043Z,99.90
2018-07-19T07:32:48.807Z,99.90
2018-07-19T07:35:17.830Z,99.90
2018-07-19T07:37:46.767Z,99.90
2018-07-19T07:40:16.696Z,99.90
2018-07-19T07:42:46.288Z,99.90
2018-07-19T07:45:15.263Z,99.90
2018-07-19T07:47:45.881Z,99.90
2018-07-19T07:50:14.784Z,99.90
2018-07-19T07:52:44.087Z,99.90
2018-07-19T07:55:13.163Z,99.90
2018-07-19T07:57:43.169Z,99.90
2018-07-19T08:00:12.548Z,99.90
2018-07-19T08:02:41.879Z,99.90
2018-07-19T08:07:39.701Z,99.90
2018-07-19T08:10:08.744Z,99.90
2018-07-19T08:15:07.545Z,99.90
2018-07-19T08:17:36.505Z,99.90
2018-07-19T08:20:05.626Z,99.90
2018-07-19T08:22:35.595Z,99.90
2018-07-19T08:25:05.061Z,99.50
2018-07-19T08:27:34.065Z,98.70
2018-07-19T08:30:03.115Z,99.00
2018-07-19T08:32:32.709Z,98.00
2018-07-19T08:35:01.661Z,98.00
2018-07-19T08:37:30.716Z,98.50
2018-07-19T08:39:59.835Z,98.70
2018-07-19T08:44:57.686Z,97.20
2018-07-19T08:47:27.282Z,97.80
2018-07-19T08:49:56.264Z,96.50
2018-07-19T08:52:25.766Z,95.80
2018-07-19T08:54:54.876Z,96.20
2018-07-19T08:57:23.855Z,96.00
2018-07-19T08:59:53.646Z,95.60
2018-07-19T09:02:23.317Z,95.00
2018-07-19T09:04:52.890Z,95.90
2018-07-19T09:07:21.874Z,94.40
2018-07-19T09:12:20.012Z,94.90
2018-07-19T09:14:48.989Z,94.40
2018-07-19T09:17:18.292Z,94.90
2018-07-19T09:19:47.323Z,92.70
2018-07-19T09:22:16.840Z,92.40
2018-07-19T09:24:45.986Z,92.00
2018-07-19T09:29:43.492Z,90.20
2018-07-19T09:32:12.521Z,91.00
2018-07-19T09:34:41.478Z,90.30
2018-07-19T09:37:10.524Z,89.70
2018-07-19T09:39:39.470Z,90.10
2018-07-19T09:42:08.612Z,90.90
2018-07-19T09:44:37.953Z,88.70
2018-07-19T09:47:06.993Z,86.30
2018-07-19T09:49:35.981Z,85.50
2018-07-19T09:57:07.889Z,87.60
2018-07-19T10:02:05.545Z,85.20
2018-07-19T10:04:34.655Z,85.40
2018-07-19T10:09:32.324Z,82.40
2018-07-19T10:12:01.296Z,87.20
2018-07-19T10:14:30.319Z,83.90
2018-07-19T10:16:59.374Z,83.50
2018-07-19T10:19:28.415Z,83.10
2018-07-19T10:21:58.401Z,84.20
2018-07-19T10:24:27.678Z,84.70
2018-07-19T10:26:56.785Z,83.90
2018-07-19T10:29:26.433Z,83.80
2018-07-19T10:31:55.952Z,82.90
2018-07-19T10:34:25.150Z,80.70
2018-07-19T10:36:54.341Z,81.70
2018-07-19T10:39:23.365Z,82.20
2018-07-19T10:41:52.528Z,84.40
2018-07-19T10:44:21.569Z,80.80
2018-07-19T10:46:50.952Z,81.60
2018-07-19T10:49:20.161Z,84.30
2018-07-19T10:51:49.188Z,82.60
2018-07-19T10:54:18.678Z,81.40
2018-07-19T10:56:47.664Z,83.40
2018-07-19T10:59:16.706Z,82.90
2018-07-19T11:01:45.729Z,80.60
2018-07-19T11:04:14.738Z,82.80
2018-07-19T11:06:44.186Z,79.20
2018-07-19T11:09:13.281Z,80.30
2018-07-19T11:11:42.742Z,79.80
2018-07-19T11:14:11.753Z,80.40
2018-07-19T11:24:06.836Z,81.20
2018-07-19T11:26:35.919Z,76.60
2018-07-19T11:29:05.088Z,75.50
2018-07-19T11:31:34.140Z,76.30
2018-07-19T11:34:03.137Z,76.10
2018-07-19T11:36:32.257Z,76.30
2018-07-19T11:41:31.702Z,78.90
2018-07-19T11:44:01.074Z,76.10
2018-07-19T11:48:58.598Z,77.90
2018-07-19T11:51:27.605Z,76.10
2018-07-19T11:53:56.601Z,76.00
2018-07-19T11:56:25.793Z,74.40
2018-07-19T11:58:55.300Z,76.40
2018-07-19T12:01:24.405Z,76.80
2018-07-19T12:03:53.477Z,73.10
2018-07-19T12:06:22.475Z,74.20
2018-07-19T12:08:51.603Z,74.10
2018-07-19T12:13:49.276Z,75.90
2018-07-19T12:18:46.852Z,75.00
2018-07-19T12:23:44.425Z,75.50
2018-07-19T12:26:13.516Z,73.90
2018-07-19T12:31:11.154Z,72.90
2018-07-19T12:33:40.218Z,73.00
2018-07-19T12:36:09.341Z,72.20
2018-07-19T12:38:39.168Z,71.70
2018-07-19T12:41:08.321Z,73.30
2018-07-19T12:43:37.376Z,73.40
2018-07-19T12:48:35.043Z,73.20
2018-07-19T12:51:04.135Z,70.70
2018-07-19T12:53:33.168Z,71.00
2018-07-19T12:56:02.167Z,72.20
2018-07-19T12:58:31.236Z,71.80
2018-07-19T13:01:00.438Z,70.10
2018-07-19T13:03:29.487Z,70.70
2018-07-19T13:05:58.517Z,71.20
2018-07-19T13:10:56.248Z,72.50
2018-07-19T13:13:26.531Z,72.70
2018-07-19T13:15:55.719Z,69.00
2018-07-19T13:18:24.733Z,69.90
2018-07-19T13:20:53.952Z,69.50
2018-07-19T13:23:23.324Z,70.90
2018-07-19T13:25:52.560Z,70.10
2018-07-19T13:28:21.541Z,70.30
2018-07-19T13:30:50.777Z,70.90
2018-07-19T13:33:19.927Z,71.60
2018-07-19T13:35:48.946Z,70.40
2018-07-19T13:38:17.968Z,69.00
2018-07-19T13:40:47.060Z,69.60
2018-07-19T13:43:16.099Z,69.60
2018-07-19T13:45:45.172Z,69.50
2018-07-19T13:48:14.186Z,69.50
2018-07-19T13:50:43.220Z,69.40
2018-07-19T13:56:00.948Z,70.50
2018-07-19T14:00:58.644Z,71.90
2018-07-19T14:03:27.730Z,71.00
2018-07-19T14:05:56.729Z,72.60
2018-07-19T14:10:55.020Z,67.80
2018-07-19T14:13:24.088Z,67.80
2018-07-19T14:18:22.460Z,65.70
2018-07-19T14:20:51.921Z,66.40
2018-07-19T14:23:20.928Z,65.80
2018-07-19T14:25:49.993Z,66.40
2018-07-19T14:28:19.012Z,67.10
2018-07-19T14:30:48.057Z,66.20
2018-07-19T14:33:17.092Z,67.40
2018-07-19T14:35:46.193Z,67.40
2018-07-19T14:38:15.220Z,67.20
2018-07-19T14:40:44.217Z,66.70
2018-07-19T14:43:13.261Z,67.70
2018-07-19T14:45:42.340Z,70.00
2018-07-19T14:48:11.458Z,67.70
2018-07-19T14:50:40.488Z,67.50
2018-07-19T14:53:09.508Z,68.30
2018-07-19T14:55:38.578Z,67.70
2018-07-19T14:58:07.593Z,67.50
2018-07-19T15:03:05.324Z,66.60
2018-07-19T15:05:34.641Z,66.00
2018-07-19T15:08:03.637Z,66.30
2018-07-19T15:10:32.833Z,66.50
2018-07-19T15:13:02.352Z,66.70
2018-07-19T15:17:59.908Z,67.10
2018-07-19T15:20:29.932Z,66.80
2018-07-19T15:22:58.885Z,66.70
2018-07-19T15:25:28.030Z,65.60
2018-07-19T15:27:57.737Z,65.20
2018-07-19T15:30:26.990Z,64.30
2018-07-19T15:32:55.923Z,65.60
2018-07-19T15:35:29.231Z,65.70
2018-07-19T15:37:59.182Z,65.80
2018-07-19T15:40:28.380Z,66.30
2018-07-19T15:43:00.930Z,66.10
2018-07-19T15:45:30.153Z,65.50
2018-07-19T15:47:59.783Z,66.10
2018-07-19T15:50:29.882Z,65.70
2018-07-19T15:53:00.093Z,65.00
2018-07-19T15:56:26.755Z,62.10
2018-07-19T15:59:07.603Z,62.40
2018-07-19T16:01:37.190Z,63.70
2018-07-19T16:04:07.866Z,61.70
2018-07-19T16:09:15.748Z,63.20
2018-07-19T16:11:44.794Z,62.00
2018-07-19T16:14:14.097Z,61.10
2018-07-19T16:19:14.015Z,61.80
2018-07-19T16:21:43.065Z,61.10
2018-07-19T16:24:12.091Z,61.40
2018-07-19T16:26:41.149Z,61.00
2018-07-19T16:29:11.401Z,59.80
2018-07-19T16:31:51.852Z,58.40
2018-07-19T16:34:21.135Z,59.00
2018-07-19T16:36:50.226Z,58.90
2018-07-19T16:39:19.426Z,59.80
2018-07-19T16:41:52.418Z,59.60
2018-07-19T16:44:21.753Z,59.40
2018-07-19T16:46:51.309Z,58.50
2018-07-19T16:49:21.669Z,59.20
2018-07-19T16:51:51.061Z,59.60
2018-07-19T16:54:20.693Z,60.00
2018-07-19T17:01:47.137Z,64.30
2018-07-19T17:06:47.429Z,64.40
2018-07-19T17:09:17.033Z,65.20
2018-07-19T17:11:54.359Z,65.00
2018-07-19T17:21:11.616Z,62.80
2018-07-19T17:24:20.435Z,62.20
2018-07-19T17:26:58.772Z,63.50
2018-07-19T17:29:28.032Z,64.50
2018-07-19T17:31:59.220Z,64.70
2018-07-19T17:34:28.509Z,64.90
2018-07-19T17:37:15.093Z,65.30
2018-07-19T17:39:44.395Z,64.10
2018-07-19T17:42:13.470Z,64.20
2018-07-19T17:44:44.777Z,63.70
2018-07-19T17:47:17.016Z,64.20
2018-07-19T17:49:47.180Z,63.50
2018-07-19T17:52:16.637Z,63.30
2018-07-19T17:54:48.072Z,63.40
2018-07-19T17:57:17.973Z,63.50
2018-07-19T17:59:55.276Z,62.90
2018-07-19T18:02:36.620Z,63.50
2018-07-19T18:05:08.245Z,63.00
2018-07-19T18:07:37.535Z,63.80
2018-07-19T18:10:06.903Z,63.80
2018-07-19T18:12:56.879Z,63.70
2018-07-19T18:15:27.153Z,63.50
2018-07-19T18:17:56.526Z,64.20
2018-07-19T18:20:25.943Z,64.60
2018-07-19T18:22:55.408Z,64.40
2018-07-19T18:25:25.184Z,65.00
2018-07-19T18:27:54.676Z,65.10
2018-07-19T18:30:23.943Z,65.50
2018-07-19T18:32:53.485Z,66.00
2018-07-19T18:35:23.167Z,66.50
2018-07-19T18:37:53.352Z,67.20
2018-07-19T18:40:24.439Z,70.00
2018-07-19T18:42:53.766Z,71.10
2018-07-19T18:45:23.307Z,71.70
2018-07-19T18:47:52.801Z,74.20
2018-07-19T18:50:22.277Z,76.40
2018-07-19T18:52:52.240Z,77.60
2018-07-19T18:55:22.846Z,78.90
2018-07-19T18:57:52.809Z,77.60
2018-07-19T19:00:22.200Z,79.50
2018-07-19T19:02:51.755Z,80.30
2018-07-19T19:05:21.806Z,80.00
2018-07-19T19:07:51.477Z,82.30
2018-07-19T19:10:21.296Z,83.50
2018-07-19T19:12:51.572Z,84.80
2018-07-19T19:15:20.972Z,87.40
2018-07-19T19:17:50.584Z,87.50
2018-07-19T19:20:24.784Z,88.60
2018-07-19T19:22:54.279Z,89.20
2018-07-19T19:25:43.867Z,90.00
2018-07-19T19:28:15.192Z,90.30
2018-07-19T19:30:44.685Z,90.90
2018-07-19T19:33:14.036Z,91.40
2018-07-19T19:35:43.849Z,91.70
2018-07-19T19:38:13.593Z,91.90
2018-07-19T19:40:43.457Z,92.40
2018-07-19T19:43:13.348Z,92.70
2018-07-19T19:45:43.085Z,93.50
2018-07-19T19:48:13.206Z,93.60
2018-07-19T19:50:42.508Z,93.70
2018-07-19T19:53:14.369Z,94.10
2018-07-19T19:55:43.846Z,94.70
2018-07-19T19:58:13.758Z,94.90
2018-07-19T20:00:43.208Z,95.30
2018-07-19T20:03:14.073Z,96.20
2018-07-19T20:05:43.164Z,96.60
2018-07-19T20:08:12.637Z,97.20
2018-07-19T20:10:41.756Z,97.40
2018-07-19T20:13:11.831Z,97.90
2018-07-19T20:15:52.472Z,98.30
2018-07-19T20:18:21.908Z,98.90
2018-07-19T20:20:51.144Z,99.70
2018-07-19T20:23:20.906Z,99.90
2018-07-19T20:28:37.149Z,99.90
2018-07-19T20:31:06.468Z,99.90
2018-07-19T20:33:35.875Z,99.90
2018-07-19T20:36:13.025Z,99.90
2018-07-19T20:38:42.802Z,99.90
2018-07-19T20:41:16.658Z,99.90
2018-07-19T20:43:46.304Z,99.90
2018-07-19T20:46:15.629Z,99.90
2018-07-19T20:48:45.084Z,99.90
2018-07-19T20:51:15.940Z,99.90
2018-07-19T20:53:45.559Z,99.90
2018-07-19T20:56:15.390Z,99.90
2018-07-19T20:58:45.189Z,99.90
2018-07-19T21:01:14.548Z,99.90
2018-07-19T21:03:44.265Z,99.90
2018-07-19T21:06:13.735Z,99.90
2018-07-19T21:08:43.620Z,99.90
2018-07-19T21:11:13.480Z,99.90
2018-07-19T21:13:43.870Z,99.90
2018-07-19T21:16:13.405Z,99.90
2018-07-19T21:18:43.008Z,99.90
2018-07-19T21:21:12.495Z,99.90
2018-07-19T21:23:41.938Z,99.90
2018-07-19T21:26:11.251Z,99.90
2018-07-19T21:28:41.095Z,99.90
2018-07-19T21:31:10.824Z,99.90
2018-07-19T21:33:41.541Z,99.90
2018-07-19T21:36:11.984Z,99.90
2018-07-19T21:38:43.276Z,99.90
2018-07-19T21:41:13.073Z,99.90
2018-07-19T21:43:42.980Z,99.90
2018-07-19T21:46:12.069Z,99.90
2018-07-19T21:48:41.313Z,99.90
2018-07-19T21:51:13.118Z,99.90
2018-07-19T21:53:42.973Z,99.90
2018-07-19T21:56:12.404Z,99.90
2018-07-19T21:58:41.787Z,99.90
2018-07-19T22:01:11.770Z,99.90
2018-07-19T22:03:41.125Z,99.90
2018-07-19T22:06:11.998Z,99.90
2018-07-19T22:08:41.121Z,99.90
2018-07-19T22:11:10.189Z,99.90
2018-07-19T22:13:39.974Z,99.90
2018-07-19T22:16:09.157Z,99.90
2018-07-19T22:18:38.267Z,99.90
2018-07-19T22:21:07.405Z,99.90
2018-07-19T22:23:36.421Z,99.90
2018-07-19T22:26:05.677Z,99.90
2018-07-19T22:28:34.768Z,99.90
2018-07-19T22:31:03.935Z,99.90
2018-07-19T22:33:32.957Z,99.90
2018-07-19T22:36:02.084Z,99.90
2018-07-19T22:38:31.074Z,99.90
2018-07-19T22:41:00.417Z,99.90
2018-07-19T22:43:29.447Z,99.90
2018-07-19T22:45:58.522Z,99.90
2018-07-19T22:48:28.032Z,99.90
2018-07-19T22:50:57.114Z,99.90
2018-07-19T22:53:26.245Z,99.90
2018-07-19T22:55:55.324Z,99.90
2018-07-19T22:58:24.642Z,99.90
2018-07-19T23:00:53.851Z,99.90
2018-07-19T23:03:23.047Z,99.90
2018-07-19T23:05:52.101Z,99.90
2018-07-19T23:08:21.116Z,99.90
2018-07-19T23:10:50.341Z,99.90
2018-07-19T23:13:19.654Z,99.90
2018-07-19T23:15:48.765Z,99.90
2018-07-19T23:18:17.842Z,99.90
2018-07-19T23:20:47.852Z,99.90
2018-07-19T23:23:16.928Z,99.90
2018-07-19T23:25:45.974Z,99.90
2018-07-19T23:28:15.173Z,99.90
2018-07-19T23:30:44.413Z,99.90
2018-07-19T23:33:13.960Z,99.90
2018-07-19T23:35:51.129Z,99.90
2018-07-19T23:38:30.114Z,99.90
2018-07-19T23:41:01.015Z,99.90
2018-07-19T23:43:33.404Z,99.90
2018-07-19T23:46:32.356Z,99.90
2018-07-19T23:49:06.639Z,99.90
2018-07-19T23:51:37.321Z,99.90
2018-07-19T23:54:07.228Z,99.90
2018-07-19T23:56:36.884Z,99.90
2018-07-19T23:59:06.020Z,99.90
